METAR Data
IDs: Format: Raw Decoded Include TAF

Data at: 1112 UTC 26 Sep 2018

KRVS 261053Z AUTO 02009KT 10SM FEW110 16/11 A3018 RMK AO2 SLP224 T01560111
KRVS 260953Z AUTO 02007KT 10SM SCT110 17/12 A3017 RMK AO2 PRESRR SLP219 T01670117
KRVS 260853Z AUTO 03012G20KT 10SM FEW070 BKN090 17/12 A3014 RMK AO2 LTG DSNT SW SLP211 60000 T01720117 50003
KRVS 260753Z AUTO 02013G21KT 10SM BKN065 18/12 A3015 RMK AO2 RAE02B31E40 SLP212 P0000 T01780117
KRVS 260653Z AUTO 02011G19KT 10SM -RA SCT080 OVC110 18/12 A3014 RMK AO2 PK WND 03026/0638 LTG DSNT SW RAB50 SLP211 P0000 T01830122
KRVS 260553Z AUTO 01011G22KT 10SM BKN070 OVC085 19/12 A3013 RMK AO2 SLP208 T01940122 10272 20194 403220189 51027
KRVS 260453Z AUTO 01010G20KT 10SM FEW075 BKN095 19/13 A3011 RMK AO2 SLP201 T01940128
KRVS 260353Z AUTO 01017G23KT 10SM FEW070 OVC090 20/13 A3009 RMK AO2 SLP192 T02000128
KRVS 260253Z 36007G14KT 310V020 10SM CLR 22/16 A3005 RMK AO2 SLP180 LAST T02170156 51051
KRVS 260153Z 01008KT 10SM FEW090 24/17 A3001 RMK AO2 PRESRR SLP165 T02390172
KRVS 260053Z 01011G17KT 10SM BKN065 OVC085 27/19 A2995 RMK AO2 SLP144 T02670194
KRVS 252353Z 00000KT 10SM FEW075 26/20 A2990 RMK AO2 SLP128 T02610200 10322 20261 53008
KRVS 252253Z 22005KT 10SM CLR 31/18 A2988 RMK AO2 SLP121 T03060183
KRVS 252153Z 24004KT 10SM CLR 32/18 A2988 RMK AO2 SLP119 T03170183
KRVS 252053Z VRB05KT 10SM FEW060 32/19 A2987 RMK AO2 SLP118 T03170189 58007
KRVS 251953Z 21008KT 10SM FEW055 31/19 A2988 RMK AO2 SLP122 T03110194
KRVS 251853Z 21008G17KT 10SM CLR 31/19 A2990 RMK AO2 SLP126 T03110189
KRVS 251753Z 19012G20KT 10SM CLR 31/19 A2990 RMK AO2 SLP126 T03060189 10306 20217 58015
KRVS 251653Z 19011KT 10SM CLR 29/21 A2992 RMK AO2 SLP134 T02890206 PWINO $
KRVS 251553Z 21009KT 10SM SCT020 27/21 A2994 RMK AO2 SLP141 T02670206 PWINO $
KRVS 251515Z 18011KT 10SM BKN018 25/21 A2994 RMK AO2 T02500206 $
KRVS 251453Z 19010KT 10SM SCT014 24/21 A2993 RMK AO2 SLP140 T02440206 56002
KRVS 251414Z 17009KT 10SM BKN010 23/20 A2993 RMK AO2 T02330200
KRVS 251400Z 18008KT 10SM SCT009 23/21 A2993 RMK AO2 T02280206
KRVS 251353Z 17007KT 10SM SCT011 23/21 A2993 RMK AO2 SLP140 T02330206
KRVS 251348Z 17005KT 10SM SCT011 23/21 A2994 RMK AO2
KRVS 251323Z 19006KT 10SM OVC013 22/21 A2994 RMK AO2 T02220206
KRVS 251308Z 18005KT 10SM FEW008 OVC016 22/21 A2994 RMK AO2 T02220206
KRVS 251300Z 19004KT 10SM OVC014 22/21 A2994 RMK AO2 T02220206
KRVS 251253Z 19004KT 10SM FEW010 OVC016 22/21 A2994 RMK AO2 SLP142 T02170206
KRVS 251243Z 18006KT 10SM BKN010 OVC014 22/21 A2994 RMK AO2 CIG 007V013 T02170206
KRVS 251201Z 20008KT 9SM OVC005 22/21 A2993 RMK AO2 T02170206
KRVS 251153Z 20008KT 9SM OVC004 22/21 A2993 RMK AO2 SLP138 T02170206 10217 20189 51012
KRVS 251053Z AUTO 00000KT 8SM OVC003 21/20 A2992 RMK AO2 SLP135 T02060200
KRVS 251041Z AUTO 18003KT 3SM BR OVC003 21/20 A2992 RMK AO2 T02060200
KRVS 251034Z AUTO 00000KT 1 3/4SM BR OVC003 21/20 A2992 RMK AO2 T02060200
KRVS 250953Z AUTO 00000KT 4SM BR BKN004 19/18 A2991 RMK AO2 SLP131 T01940183
KRVS 250939Z AUTO 00000KT 4SM BR FEW004 19/18 A2990 RMK AO2 T01940183
KRVS 250853Z AUTO 16003KT 9SM CLR 21/20 A2989 RMK AO2 SLP125 T02110200 53001
KRVS 250753Z AUTO 17003KT 10SM CLR 21/20 A2989 RMK AO2 SLP126 T02110200
KRVS 250653Z AUTO 17003KT 10SM CLR 22/20 A2989 RMK AO2 SLP124 T02170200
KRVS 250553Z AUTO 13003KT 10SM OVC055 22/20 A2989 RMK AO2 SLP124 T02170200 10261 20200 402720200 50003
KRVS 250453Z AUTO 00000KT 7SM FEW060 20/19 A2989 RMK AO2 SLP126 T02000194
KRVS 250353Z AUTO 00000KT 9SM CLR 21/20 A2989 RMK AO2 SLP126 T02110200
KRVS 250253Z 00000KT 10SM OVC060 23/21 A2988 RMK AO2 SLP122 LAST T02330206 53018
KRVS 250153Z 16004KT 10SM FEW060 23/21 A2986 RMK AO2 SLP115 T02280206
KRVS 250053Z 18003KT 10SM OVC060 25/20 A2984 RMK AO2 SLP109 T02500200
KRVS 242353Z 17007KT 10SM FEW060 26/20 A2983 RMK AO2 SLP103 T02610200 10272 20250 56009